createdAt,value
2022-10-29T00:00:28.980Z,5.25
2022-10-29T00:06:01.834Z,4.43
2022-10-29T00:11:12.129Z,4.47
2022-10-29T00:16:21.711Z,5.07
2022-10-29T00:21:25.764Z,5.00
2022-10-29T00:26:30.595Z,7.15
2022-10-29T00:31:32.961Z,5.38
2022-10-29T00:36:35.264Z,5.80
2022-10-29T00:41:37.630Z,6.57
2022-10-29T00:46:44.651Z,6.60
2022-10-29T00:51:48.072Z,7.35
2022-10-29T01:01:56.085Z,6.70
2022-10-29T01:06:59.084Z,5.68
2022-10-29T01:12:04.670Z,6.03
2022-10-29T01:17:17.738Z,5.20
2022-10-29T01:22:28.910Z,6.93
2022-10-29T01:27:50.098Z,6.85
2022-10-29T01:33:05.006Z,6.63
2022-10-29T01:38:18.594Z,6.07
2022-10-29T01:43:50.103Z,5.78
2022-10-29T01:48:58.482Z,5.55
2022-10-29T01:54:01.583Z,5.47
2022-10-29T02:04:29.473Z,5.63
2022-10-29T02:09:43.100Z,5.45
2022-10-29T02:14:49.358Z,6.43
2022-10-29T02:19:52.598Z,5.78
2022-10-29T02:24:55.245Z,5.18
2022-10-29T02:30:00.984Z,6.33
2022-10-29T02:35:04.232Z,6.03
2022-10-29T02:45:14.543Z,5.32
2022-10-29T02:50:22.180Z,4.50
2022-10-29T02:55:24.685Z,5.03
2022-10-29T03:00:29.046Z,4.95
2022-10-29T03:05:31.905Z,6.40
2022-10-29T03:10:34.266Z,5.78
2022-10-29T03:15:45.541Z,5.30
2022-10-29T03:20:47.803Z,5.25
2022-10-29T03:25:55.628Z,5.20
2022-10-29T03:30:58.956Z,5.20
2022-10-29T03:36:06.498Z,5.68
2022-10-29T03:41:10.775Z,5.78
2022-10-29T03:46:13.288Z,6.10
2022-10-29T03:51:15.560Z,7.05
2022-10-29T03:56:17.987Z,9.88
2022-10-29T04:01:20.715Z,8.85
2022-10-29T04:06:24.118Z,7.20
2022-10-29T04:11:26.371Z,5.80
2022-10-29T04:16:28.501Z,6.10
2022-10-29T04:23:54.377Z,5.80
2022-10-29T04:32:19.438Z,11.48
2022-10-29T04:37:21.730Z,9.73
2022-10-29T04:42:24.222Z,7.60
2022-10-29T04:47:26.569Z,6.40
2022-10-29T04:52:28.718Z,5.45
2022-10-29T04:57:34.350Z,6.15
2022-10-29T05:02:37.212Z,4.90
2022-10-29T05:07:39.514Z,4.75
2022-10-29T05:12:42.110Z,4.40
2022-10-29T05:17:44.232Z,4.33
2022-10-29T05:22:46.698Z,5.25
2022-10-29T05:27:48.894Z,5.43
2022-10-29T05:32:51.190Z,5.40
2022-10-29T05:37:57.287Z,6.38
2022-10-29T05:42:59.717Z,5.43
2022-10-29T05:48:03.857Z,6.38
2022-10-29T05:53:09.196Z,6.30
2022-10-29T05:58:13.233Z,6.13
2022-10-29T06:03:17.948Z,7.20
2022-10-29T06:08:20.134Z,7.18
2022-10-29T06:13:22.762Z,7.10
2022-10-29T06:18:28.818Z,7.83
2022-10-29T06:23:31.036Z,7.70
2022-10-29T06:28:34.788Z,8.75
2022-10-29T06:33:37.292Z,9.68
2022-10-29T06:38:39.904Z,8.98
2022-10-29T06:43:42.582Z,8.82
2022-10-29T06:48:44.912Z,9.25
2022-10-29T06:53:47.133Z,8.60
2022-10-29T06:58:49.258Z,9.25
2022-10-29T07:03:54.652Z,8.70
2022-10-29T07:08:56.860Z,8.13
2022-10-29T07:14:00.291Z,8.40
2022-10-29T07:24:05.752Z,8.93
2022-10-29T07:29:08.367Z,7.47
2022-10-29T07:34:10.842Z,7.23
2022-10-29T07:39:13.818Z,6.88
2022-10-29T07:44:16.017Z,7.15
2022-10-29T07:49:18.182Z,7.70
2022-10-29T07:54:20.713Z,7.32
2022-10-29T07:59:23.164Z,7.13
2022-10-29T08:04:29.773Z,8.07
2022-10-29T08:09:50.073Z,7.03
2022-10-29T08:14:52.229Z,7.43
2022-10-29T08:19:54.476Z,7.40
2022-10-29T08:24:56.673Z,7.40
2022-10-29T08:30:00.181Z,6.65
2022-10-29T08:41:21.992Z,6.97
2022-10-29T08:46:41.577Z,6.82
2022-10-29T08:51:48.666Z,7.35
2022-10-29T08:56:54.294Z,7.28
2022-10-29T09:01:57.167Z,6.32
2022-10-29T09:07:05.495Z,7.18
2022-10-29T09:12:19.062Z,6.70
2022-10-29T09:17:49.961Z,6.45
2022-10-29T09:23:14.679Z,6.57
2022-10-29T09:28:28.954Z,7.28
2022-10-29T09:33:32.310Z,6.05
2022-10-29T09:38:44.399Z,7.18
2022-10-29T09:43:55.420Z,6.63
2022-10-29T09:49:36.217Z,7.15
2022-10-29T09:54:38.394Z,6.07
2022-10-29T09:59:59.568Z,6.97
2022-10-29T10:05:27.321Z,6.68
2022-10-29T10:10:29.621Z,5.20
2022-10-29T10:15:35.272Z,5.88
2022-10-29T10:20:41.604Z,7.20
2022-10-29T10:25:44.212Z,6.05
2022-10-29T10:31:05.739Z,6.15
2022-10-29T10:36:27.443Z,6.00
2022-10-29T10:41:33.703Z,5.55
2022-10-29T10:46:43.968Z,5.78
2022-10-29T10:51:51.183Z,20.25
2022-10-29T10:57:03.748Z,13.38
2022-10-29T11:02:14.524Z,7.55
2022-10-29T11:07:18.099Z,6.32
2022-10-29T11:12:31.762Z,5.38
2022-10-29T11:17:58.946Z,6.80
2022-10-29T11:23:20.234Z,6.15
2022-10-29T11:28:48.766Z,5.82
2022-10-29T11:34:21.073Z,4.38
2022-10-29T11:39:28.751Z,4.60
2022-10-29T11:44:37.109Z,5.32
2022-10-29T11:50:05.152Z,4.45
2022-10-29T11:55:20.513Z,4.07
2022-10-29T12:00:24.610Z,4.18
2022-10-29T12:05:42.058Z,4.20
2022-10-29T12:11:05.105Z,3.58
2022-10-29T12:21:37.862Z,4.65
2022-10-29T12:26:49.286Z,6.78
2022-10-29T12:32:07.382Z,6.53
2022-10-29T12:37:18.236Z,6.50
2022-10-29T12:42:28.099Z,5.95
2022-10-29T12:47:46.518Z,5.18
2022-10-29T12:53:12.277Z,4.72
2022-10-29T12:58:42.804Z,4.18
2022-10-29T13:04:00.311Z,4.70
2022-10-29T13:09:14.876Z,5.68
2022-10-29T13:14:43.428Z,4.95
2022-10-29T13:20:14.712Z,4.80
2022-10-29T13:25:28.949Z,4.38
2022-10-29T13:30:32.754Z,4.88
2022-10-29T13:35:42.437Z,5.60
2022-10-29T13:41:02.505Z,5.72
2022-10-29T13:46:13.901Z,6.95
2022-10-29T13:51:40.928Z,6.30
2022-10-29T13:56:49.495Z,6.43
2022-10-29T14:01:58.047Z,8.55
2022-10-29T14:07:00.919Z,8.27
2022-10-29T14:12:05.880Z,9.55
2022-10-29T14:17:13.561Z,7.03
2022-10-29T14:22:38.687Z,7.22
2022-10-29T14:27:41.379Z,7.68
2022-10-29T14:32:54.546Z,7.60
2022-10-29T14:43:02.482Z,6.93
2022-10-29T14:48:09.935Z,7.25
2022-10-29T14:53:38.797Z,6.93
2022-10-29T14:58:41.523Z,7.28
2022-10-29T15:03:44.258Z,7.95
2022-10-29T15:08:55.084Z,7.90
2022-10-29T15:19:31.432Z,7.65
2022-10-29T15:24:33.719Z,9.13
2022-10-29T15:29:42.908Z,12.33
2022-10-29T15:34:54.334Z,11.70
2022-10-29T15:39:59.438Z,15.48
2022-10-29T15:45:09.053Z,22.48
2022-10-29T15:50:14.280Z,32.75
2022-10-29T15:55:40.768Z,36.78
2022-10-29T16:00:43.333Z,41.17
2022-10-29T16:05:47.875Z,38.17
2022-10-29T16:10:50.822Z,37.05
2022-10-29T16:15:53.374Z,36.28
2022-10-29T16:21:01.171Z,31.50
2022-10-29T16:26:03.563Z,31.35
2022-10-29T16:31:20.611Z,35.40
2022-10-29T16:36:23.477Z,31.80
2022-10-29T16:41:25.756Z,34.10
2022-10-29T16:46:28.045Z,37.30
2022-10-29T16:51:30.335Z,42.15
2022-10-29T16:56:32.788Z,48.20
2022-10-29T17:01:35.041Z,51.78
2022-10-29T17:06:37.281Z,71.78
2022-10-29T17:11:40.255Z,66.30
2022-10-29T17:16:42.743Z,65.93
2022-10-29T17:21:45.042Z,71.00
2022-10-29T17:31:50.502Z,79.88
2022-10-29T17:36:53.580Z,97.87
2022-10-29T17:41:55.820Z,97.30
2022-10-29T17:46:58.260Z,93.13
2022-10-29T17:57:04.929Z,75.45
2022-10-29T18:02:10.336Z,68.25
2022-10-29T18:07:13.065Z,67.75
2022-10-29T18:12:15.254Z,73.28
2022-10-29T18:17:17.442Z,78.00
2022-10-29T18:22:19.728Z,84.00
2022-10-29T18:27:22.145Z,76.10
2022-10-29T18:32:24.333Z,57.47
2022-10-29T18:37:26.702Z,37.63
2022-10-29T18:42:30.492Z,25.83
2022-10-29T18:47:36.555Z,25.48
2022-10-29T18:52:38.913Z,25.67
2022-10-29T18:57:41.095Z,31.45
2022-10-29T19:02:43.503Z,31.30
2022-10-29T19:07:55.137Z,42.40
2022-10-29T19:18:23.812Z,38.15
2022-10-29T19:23:27.443Z,51.30
2022-10-29T19:28:30.524Z,117.68
2022-10-29T19:33:33.055Z,93.97
2022-10-29T19:38:35.726Z,76.57
2022-10-29T19:43:38.435Z,74.37
2022-10-29T19:48:41.642Z,67.10
2022-10-29T19:53:43.926Z,54.97
2022-10-29T19:58:47.464Z,47.53
2022-10-29T20:03:50.096Z,40.88
2022-10-29T20:08:53.346Z,39.17
2022-10-29T20:13:55.576Z,32.20
2022-10-29T20:18:58.706Z,18.88
2022-10-29T20:24:01.023Z,16.58
2022-10-29T20:29:04.682Z,14.65
2022-10-29T20:39:17.234Z,13.57
2022-10-29T20:44:19.465Z,15.43
2022-10-29T20:49:21.637Z,19.80
2022-10-29T20:54:23.928Z,24.45
2022-10-29T20:59:26.325Z,21.67
2022-10-29T21:04:28.577Z,24.13
2022-10-29T21:09:31.334Z,24.05
2022-10-29T21:14:33.511Z,21.13
2022-10-29T21:19:35.791Z,22.52
2022-10-29T21:24:39.287Z,20.48
2022-10-29T21:29:52.451Z,21.02
2022-10-29T21:34:54.654Z,22.70
2022-10-29T21:40:26.063Z,20.52
2022-10-29T21:45:28.211Z,21.35
2022-10-29T21:50:30.383Z,22.05
2022-10-29T21:55:33.054Z,20.38
2022-10-29T22:00:35.337Z,23.27
2022-10-29T22:05:38.867Z,27.65
2022-10-29T22:10:41.379Z,28.58
2022-10-29T22:15:45.728Z,27.83
2022-10-29T22:20:47.993Z,28.45
2022-10-29T22:25:51.549Z,29.27
2022-10-29T22:30:58.798Z,27.90
2022-10-29T22:36:07.436Z,26.17
2022-10-29T22:41:15.631Z,23.83
2022-10-29T22:46:18.552Z,25.00
2022-10-29T22:51:25.556Z,21.20
2022-10-29T22:56:38.652Z,20.33
2022-10-29T23:01:44.267Z,18.48
2022-10-29T23:06:48.168Z,17.73
2022-10-29T23:11:50.813Z,18.23
2022-10-29T23:16:52.974Z,19.05
2022-10-29T23:21:55.325Z,17.30
2022-10-29T23:26:58.660Z,16.92
2022-10-29T23:32:10.413Z,20.75
2022-10-29T23:37:12.567Z,23.15
2022-10-29T23:42:15.759Z,24.15
2022-10-29T23:47:20.014Z,25.23
2022-10-29T23:52:23.394Z,25.52
2022-10-29T23:57:25.540Z,27.35
